Time,TemperatureF,DewpointF,PressureIn,WindDirection,WindDirectionDegrees,WindSpeedMPH,WindSpeedGustMPH,Humidity,HourlyPrecipIn,Conditions,Clouds,dailyrainin,SoftwareType,DateUTC
2013-11-03 00:12:00,40.0,27.0,-100.00,South,188,0.0,3.0,60,0.00,,,0.01,,2013-11-03 06:12:00,
2013-11-03 00:23:00,40.0,26.0,-100.00,South,178,1.0,8.0,58,0.00,,,0.01,,2013-11-03 06:23:00,
2013-11-03 00:43:00,42.0,27.0,-100.00,SW,226,1.0,10.0,55,0.00,,,0.01,,2013-11-03 06:43:00,
2013-11-03 00:53:00,43.0,29.0,-100.00,West,262,7.0,17.0,58,0.00,,,0.01,,2013-11-03 06:53:00,
2013-11-03 01:11:00,42.0,31.0,-100.00,West,268,8.0,21.0,64,0.00,,,0.01,,2013-11-03 07:11:00,
2013-11-03 01:22:00,41.0,32.0,-100.00,WSW,258,9.0,19.0,69,0.00,,,0.01,,2013-11-03 07:22:00,
2013-11-03 01:41:00,40.0,31.0,-100.00,SW,233,3.0,16.0,71,0.00,,,0.01,,2013-11-03 07:41:00,
2013-11-03 01:52:00,40.0,31.0,-100.00,SW,226,2.0,9.0,71,0.00,,,0.01,,2013-11-03 07:52:00,
2013-11-03 01:21:00,40.0,32.0,-100.00,SSE,162,1.0,7.0,72,0.00,,,0.01,,2013-11-03 08:21:00,
2013-11-03 01:42:00,39.0,32.0,-100.00,SW,216,0.0,6.0,75,0.00,,,0.01,,2013-11-03 08:42:00,
2013-11-03 01:52:00,39.0,32.0,-100.00,SW,235,0.0,6.0,76,0.00,,,0.01,,2013-11-03 08:52:00,
2013-11-03 02:11:00,39.0,27.0,-100.00,West,263,6.0,11.0,62,0.00,,,0.01,,2013-11-03 09:11:00,
2013-11-03 02:21:00,38.0,27.0,-100.00,WNW,291,5.0,17.0,63,0.00,,,0.01,,2013-11-03 09:21:00,
2013-11-03 02:53:00,36.0,26.0,-100.00,SW,235,2.0,9.0,68,0.00,,,0.01,,2013-11-03 09:53:00,
2013-11-03 03:22:00,36.0,25.0,-100.00,South,185,1.0,10.0,63,0.00,,,0.01,,2013-11-03 10:22:00,
2013-11-03 03:42:00,36.0,25.0,-100.00,SW,230,2.0,8.0,64,0.00,,,0.01,,2013-11-03 10:42:00,
2013-11-03 03:53:00,36.0,25.0,-100.00,SSE,154,2.0,8.0,65,0.00,,,0.01,,2013-11-03 10:53:00,
2013-11-03 04:22:00,34.0,24.0,-100.00,WSW,251,4.0,18.0,66,0.00,,,0.01,,2013-11-03 11:22:00,
2013-11-03 04:42:00,32.0,25.0,-100.00,West,263,1.0,10.0,76,0.00,,,0.01,,2013-11-03 11:42:00,
2013-11-03 04:52:00,31.0,27.0,-100.00,SSE,163,1.0,5.0,84,0.00,,,0.01,,2013-11-03 11:52:00,
2013-11-03 05:21:00,29.0,25.0,-100.00,SE,143,2.0,7.0,86,0.00,,,0.01,,2013-11-03 12:21:00,
2013-11-03 05:41:00,29.0,26.0,-100.00,South,191,1.0,5.0,88,0.00,,,0.01,,2013-11-03 12:41:00,
2013-11-03 05:52:00,29.0,26.0,-100.00,SE,133,2.0,7.0,88,0.00,,,0.01,,2013-11-03 12:52:00,
2013-11-03 06:11:00,28.0,25.0,-100.00,SE,133,3.0,10.0,88,0.00,,,0.01,,2013-11-03 13:11:00,
2013-11-03 06:21:00,28.0,25.0,-100.00,SW,227,4.0,11.0,88,0.00,,,0.01,,2013-11-03 13:21:00,
2013-11-03 06:42:00,29.0,26.0,-100.00,SE,137,2.0,12.0,87,0.00,,,0.01,,2013-11-03 13:42:00,
2013-11-03 06:52:00,29.0,25.0,-100.00,SSW,195,2.0,12.0,86,0.00,,,0.01,,2013-11-03 13:52:00,
2013-11-03 07:11:00,29.0,26.0,-100.00,SW,214,1.0,8.0,87,0.00,,,0.01,,2013-11-03 14:11:00,
2013-11-03 07:22:00,29.0,25.0,-100.00,SSE,156,1.0,7.0,85,0.00,,,0.01,,2013-11-03 14:22:00,
2013-11-03 07:42:00,29.0,25.0,-100.00,SE,136,1.0,5.0,85,0.00,,,0.01,,2013-11-03 14:42:00,
2013-11-03 07:52:00,28.0,24.0,-100.00,SSW,193,0.0,7.0,85,0.00,,,0.01,,2013-11-03 14:52:00,
2013-11-03 08:11:00,28.0,24.0,-100.00,SE,143,1.0,7.0,84,0.00,,,0.01,,2013-11-03 15:11:00,
2013-11-03 08:22:00,28.0,23.0,-100.00,South,179,1.0,4.0,81,0.00,,,0.01,,2013-11-03 15:22:00,
2013-11-03 08:43:00,28.0,22.0,-100.00,SE,127,6.0,12.0,77,0.00,,,0.01,,2013-11-03 15:43:00,
2013-11-03 08:53:00,28.0,20.0,-100.00,WSW,253,1.0,3.0,73,0.00,,,0.01,,2013-11-03 15:53:00,
2013-11-03 09:23:00,30.0,20.0,-100.00,SW,233,0.0,4.0,65,0.00,,,0.00,,2013-11-03 16:23:00,
2013-11-03 09:43:00,30.0,16.0,-100.00,West,274,5.0,10.0,55,0.00,,,0.00,,2013-11-03 16:43:00,
2013-11-03 09:53:00,30.0,15.0,-100.00,SSW,210,4.0,25.0,53,0.00,,,0.00,,2013-11-03 16:53:00,
2013-11-03 10:22:00,30.0,15.0,-100.00,SSW,204,8.0,17.0,53,0.00,,,0.00,,2013-11-03 17:22:00,
2013-11-03 10:43:00,31.0,16.0,-100.00,SW,229,8.0,15.0,53,0.00,,,0.00,,2013-11-03 17:43:00,
2013-11-03 10:53:00,32.0,17.0,-100.00,WSW,238,5.0,15.0,53,0.00,,,0.00,,2013-11-03 17:53:00,
2013-11-03 11:23:00,32.0,15.0,-100.00,WSW,257,3.0,22.0,49,0.00,,,0.00,,2013-11-03 18:23:00,
2013-11-03 11:42:00,32.0,15.0,-100.00,WSW,241,7.0,17.0,48,0.00,,,0.00,,2013-11-03 18:42:00,
2013-11-03 11:52:00,33.0,15.0,-100.00,WSW,252,1.0,10.0,48,0.00,,,0.00,,2013-11-03 18:52:00,
2013-11-03 12:21:00,33.0,15.0,-100.00,West,277,3.0,9.0,47,0.00,,,0.00,,2013-11-03 19:21:00,
2013-11-03 12:41:00,33.0,15.0,-100.00,WSW,256,1.0,13.0,48,0.00,,,0.00,,2013-11-03 19:41:00,
2013-11-03 12:53:00,32.0,15.0,-100.00,WSW,250,5.0,17.0,48,0.00,,,0.00,,2013-11-03 19:53:00,
2013-11-03 13:22:00,32.0,16.0,-100.00,SSW,195,1.0,9.0,51,0.00,,,0.00,,2013-11-03 20:22:00,
2013-11-03 13:42:00,32.0,15.0,-100.00,South,191,3.0,13.0,48,0.00,,,0.00,,2013-11-03 20:42:00,
2013-11-03 13:52:00,32.0,15.0,-100.00,SSW,192,3.0,11.0,50,0.00,,,0.00,,2013-11-03 20:52:00,
2013-11-03 14:21:00,32.0,16.0,-100.00,SSE,158,3.0,12.0,51,0.00,,,0.00,,2013-11-03 21:21:00,
2013-11-03 14:43:00,32.0,15.0,-100.00,West,262,2.0,9.0,50,0.00,,,0.00,,2013-11-03 21:43:00,
2013-11-03 14:54:00,30.0,21.0,-100.00,SE,129,1.0,12.0,68,0.00,,,0.00,,2013-11-03 21:54:00,
2013-11-03 15:12:00,28.0,19.0,-100.00,SSW,208,0.0,4.0,68,0.00,,,0.00,,2013-11-03 22:12:00,
2013-11-03 15:22:00,29.0,19.0,-100.00,West,259,2.0,10.0,65,0.00,,,0.00,,2013-11-03 22:22:00,
2013-11-03 15:42:00,28.0,21.0,-100.00,WNW,285,1.0,11.0,75,0.00,,,0.00,,2013-11-03 22:42:00,
2013-11-03 15:52:00,27.0,18.0,-100.00,WSW,252,1.0,6.0,68,0.00,,,0.00,,2013-11-03 22:52:00,
2013-11-03 16:23:00,29.0,15.0,-100.00,WSW,252,3.0,10.0,56,0.00,,,0.00,,2013-11-03 23:23:00,
2013-11-03 16:42:00,29.0,16.0,-100.00,WSW,256,2.0,10.0,57,0.00,,,0.00,,2013-11-03 23:42:00,
2013-11-03 16:53:00,29.0,14.0,-100.00,SW,228,0.0,4.0,54,0.00,,,0.00,,2013-11-03 23:53:00,
2013-11-03 17:22:00,28.0,16.0,-100.00,SSW,202,0.0,4.0,60,0.00,,,0.00,,2013-11-04 00:22:00,
2013-11-03 17:42:00,27.0,17.0,-100.00,South,187,2.0,9.0,66,0.00,,,0.00,,2013-11-04 00:42:00,
2013-11-03 17:52:00,26.0,18.0,-100.00,South,181,3.0,8.0,70,0.00,,,0.00,,2013-11-04 00:52:00,
2013-11-03 18:22:00,25.0,18.0,-100.00,WSW,249,0.0,1.0,73,0.00,,,0.00,,2013-11-04 01:22:00,
2013-11-03 18:52:00,25.0,18.0,-100.00,SSW,198,0.0,1.0,73,0.01,,,0.01,,2013-11-04 01:52:00,
2013-11-03 19:21:00,25.0,17.0,-100.00,South,170,1.0,3.0,70,0.01,,,0.01,,2013-11-04 02:21:00,
2013-11-03 19:42:00,25.0,16.0,-100.00,South,187,0.0,4.0,67,0.00,,,0.01,,2013-11-04 02:42:00,
2013-11-03 19:52:00,26.0,17.0,-100.00,South,174,0.0,6.0,68,0.00,,,0.01,,2013-11-04 02:52:00,
2013-11-03 20:21:00,25.0,17.0,-100.00,SSW,204,0.0,5.0,72,0.00,,,0.01,,2013-11-04 03:21:00,
2013-11-03 20:44:00,25.0,18.0,-100.00,SSW,206,1.0,3.0,73,0.00,,,0.01,,2013-11-04 03:44:00,
2013-11-03 20:54:00,25.0,18.0,-100.00,SSE,159,0.0,7.0,75,0.00,,,0.01,,2013-11-04 03:54:00,
2013-11-03 21:23:00,25.0,19.0,-100.00,SSE,161,1.0,7.0,76,0.00,,,0.01,,2013-11-04 04:23:00,
2013-11-03 21:43:00,24.0,18.0,-100.00,SSW,201,1.0,10.0,79,0.00,,,0.01,,2013-11-04 04:43:00,
2013-11-03 21:52:00,24.0,19.0,-100.00,SW,217,0.0,2.0,81,0.00,,,0.01,,2013-11-04 04:52:00,
2013-11-03 22:23:00,23.0,19.0,-100.00,West,261,0.0,1.0,85,0.00,,,0.01,,2013-11-04 05:23:00,
2013-11-03 22:44:00,23.0,19.0,-100.00,South,169,0.0,2.0,86,0.00,,,0.01,,2013-11-04 05:44:00,
2013-11-03 22:53:00,23.0,19.0,-100.00,WSW,252,0.0,2.0,86,0.00,,,0.01,,2013-11-04 05:53:00,
2013-11-03 23:22:00,23.0,19.0,-100.00,WSW,252,0.0,1.0,85,0.00,,,0.01,,2013-11-04 06:22:00,
2013-11-03 23:42:00,23.0,19.0,-100.00,WSW,252,0.0,1.0,86,0.00,,,0.01,,2013-11-04 06:42:00,
2013-11-03 23:52:00,23.0,19.0,-100.00,WSW,252,0.0,2.0,86,0.00,,,0.01,,2013-11-04 06:52:00,